sensor_id;sensor_type;location;lat;lon;timestamp;P1;durP1;ratioP1;P2;durP2;ratioP2
10041;SDS011;5061;49.068;12.058;2023-03-01T00:01:18;16.50;;;8.87;;
10041;SDS011;5061;49.068;12.058;2023-03-01T00:04:40;14.17;;;7.93;;
10041;SDS011;5061;49.068;12.058;2023-03-01T00:08:00;13.80;;;7.90;;
10041;SDS011;5061;49.068;12.058;2023-03-01T00:11:22;15.90;;;8.97;;
10041;SDS011;5061;49.068;12.058;2023-03-01T00:14:46;18.07;;;8.40;;
10041;SDS011;5061;49.068;12.058;2023-03-01T00:18:07;15.00;;;8.57;;
10041;SDS011;5061;49.068;12.058;2023-03-01T00:21:28;23.37;;;9.40;;
10041;SDS011;5061;49.068;12.058;2023-03-01T00:24:49;19.37;;;10.07;;
10041;SDS011;5061;49.068;12.058;2023-03-01T00:28:09;14.37;;;8.23;;
10041;SDS011;5061;49.068;12.058;2023-03-01T00:31:31;16.50;;;9.23;;
10041;SDS011;5061;49.068;12.058;2023-03-01T00:34:52;16.53;;;10.30;;
10041;SDS011;5061;49.068;12.058;2023-03-01T00:38:16;22.47;;;10.77;;
10041;SDS011;5061;49.068;12.058;2023-03-01T00:41:36;18.00;;;9.03;;
10041;SDS011;5061;49.068;12.058;2023-03-01T00:44:57;21.77;;;10.80;;
10041;SDS011;5061;49.068;12.058;2023-03-01T00:48:17;18.50;;;10.60;;
10041;SDS011;5061;49.068;12.058;2023-03-01T00:51:38;15.13;;;8.57;;
10041;SDS011;5061;49.068;12.058;2023-03-01T00:55:01;15.73;;;9.13;;
10041;SDS011;5061;49.068;12.058;2023-03-01T00:58:22;17.23;;;9.63;;
10041;SDS011;5061;49.068;12.058;2023-03-01T01:01:42;20.13;;;9.97;;
10041;SDS011;5061;49.068;12.058;2023-03-01T01:05:03;19.33;;;10.17;;
10041;SDS011;5061;49.068;12.058;2023-03-01T01:08:24;17.80;;;9.37;;
10041;SDS011;5061;49.068;12.058;2023-03-01T01:11:49;13.33;;;7.80;;
10041;SDS011;5061;49.068;12.058;2023-03-01T01:15:11;17.70;;;8.23;;
10041;SDS011;5061;49.068;12.058;2023-03-01T01:18:34;15.73;;;8.97;;
10041;SDS011;5061;49.068;12.058;2023-03-01T01:21:54;17.00;;;9.23;;
10041;SDS011;5061;49.068;12.058;2023-03-01T01:25:15;19.60;;;11.43;;
10041;SDS011;5061;49.068;12.058;2023-03-01T01:28:35;17.53;;;9.53;;
10041;SDS011;5061;49.068;12.058;2023-03-01T01:31:56;14.03;;;7.70;;
10041;SDS011;5061;49.068;12.058;2023-03-01T01:35:17;19.97;;;8.60;;
10041;SDS011;5061;49.068;12.058;2023-03-01T01:38:38;18.47;;;8.93;;
10041;SDS011;5061;49.068;12.058;2023-03-01T01:41:59;17.00;;;8.60;;
10041;SDS011;5061;49.068;12.058;2023-03-01T01:48:48;15.53;;;8.93;;
10041;SDS011;5061;49.068;12.058;2023-03-01T01:52:23;15.83;;;8.40;;
10041;SDS011;5061;49.068;12.058;2023-03-01T01:55:46;16.60;;;8.90;;
10041;SDS011;5061;49.068;12.058;2023-03-01T01:59:10;15.23;;;8.27;;
10041;SDS011;5061;49.068;12.058;2023-03-01T02:02:31;16.70;;;8.83;;
10041;SDS011;5061;49.068;12.058;2023-03-01T02:05:53;17.03;;;9.57;;
10041;SDS011;5061;49.068;12.058;2023-03-01T02:09:24;15.40;;;8.80;;
10041;SDS011;5061;49.068;12.058;2023-03-01T02:12:46;18.63;;;8.77;;
10041;SDS011;5061;49.068;12.058;2023-03-01T02:16:10;17.50;;;10.00;;
10041;SDS011;5061;49.068;12.058;2023-03-01T02:19:42;18.60;;;9.93;;
10041;SDS011;5061;49.068;12.058;2023-03-01T02:23:13;22.83;;;11.70;;
10041;SDS011;5061;49.068;12.058;2023-03-01T02:26:45;19.07;;;9.80;;
10041;SDS011;5061;49.068;12.058;2023-03-01T02:30:10;23.60;;;10.50;;
10041;SDS011;5061;49.068;12.058;2023-03-01T02:33:32;23.90;;;12.37;;
10041;SDS011;5061;49.068;12.058;2023-03-01T02:36:56;19.17;;;10.80;;
10041;SDS011;5061;49.068;12.058;2023-03-01T02:40:20;21.37;;;10.93;;
10041;SDS011;5061;49.068;12.058;2023-03-01T02:43:41;22.30;;;11.43;;
10041;SDS011;5061;49.068;12.058;2023-03-01T02:47:02;20.87;;;10.67;;
10041;SDS011;5061;49.068;12.058;2023-03-01T02:57:56;24.80;;;10.93;;
10041;SDS011;5061;49.068;12.058;2023-03-01T03:01:20;18.97;;;10.70;;
10041;SDS011;5061;49.068;12.058;2023-03-01T03:04:40;21.17;;;10.60;;
10041;SDS011;5061;49.068;12.058;2023-03-01T03:08:02;23.03;;;11.47;;
10041;SDS011;5061;49.068;12.058;2023-03-01T03:11:23;17.93;;;9.00;;
10041;SDS011;5061;49.068;12.058;2023-03-01T03:14:44;18.40;;;10.20;;
10041;SDS011;5061;49.068;12.058;2023-03-01T03:18:06;16.50;;;8.50;;
10041;SDS011;5061;49.068;12.058;2023-03-01T03:21:28;15.43;;;8.13;;
10041;SDS011;5061;49.068;12.058;2023-03-01T03:24:49;14.03;;;8.70;;
10041;SDS011;5061;49.068;12.058;2023-03-01T03:28:10;16.73;;;8.40;;
10041;SDS011;5061;49.068;12.058;2023-03-01T03:31:30;15.07;;;8.80;;
10041;SDS011;5061;49.068;12.058;2023-03-01T03:34:51;20.27;;;9.33;;
10041;SDS011;5061;49.068;12.058;2023-03-01T03:38:12;18.97;;;10.23;;
10041;SDS011;5061;49.068;12.058;2023-03-01T03:41:37;16.23;;;9.83;;
10041;SDS011;5061;49.068;12.058;2023-03-01T03:44:58;19.50;;;10.83;;
10041;SDS011;5061;49.068;12.058;2023-03-01T03:48:18;16.50;;;9.57;;
10041;SDS011;5061;49.068;12.058;2023-03-01T03:51:39;23.13;;;11.10;;
10041;SDS011;5061;49.068;12.058;2023-03-01T03:54:59;19.97;;;10.90;;
10041;SDS011;5061;49.068;12.058;2023-03-01T03:58:21;23.00;;;12.40;;
10041;SDS011;5061;49.068;12.058;2023-03-01T04:01:43;22.33;;;11.20;;
10041;SDS011;5061;49.068;12.058;2023-03-01T04:05:08;23.63;;;12.00;;
10041;SDS011;5061;49.068;12.058;2023-03-01T04:08:31;23.40;;;10.63;;
10041;SDS011;5061;49.068;12.058;2023-03-01T04:11:52;23.90;;;12.07;;
10041;SDS011;5061;49.068;12.058;2023-03-01T04:15:12;21.53;;;10.57;;
10041;SDS011;5061;49.068;12.058;2023-03-01T04:18:33;20.00;;;10.50;;
10041;SDS011;5061;49.068;12.058;2023-03-01T04:21:53;18.87;;;10.10;;
10041;SDS011;5061;49.068;12.058;2023-03-01T04:25:14;22.03;;;11.00;;
10041;SDS011;5061;49.068;12.058;2023-03-01T04:28:36;19.80;;;10.30;;
10041;SDS011;5061;49.068;12.058;2023-03-01T04:32:05;19.60;;;9.80;;
10041;SDS011;5061;49.068;12.058;2023-03-01T04:35:26;21.30;;;12.50;;
10041;SDS011;5061;49.068;12.058;2023-03-01T04:38:47;22.40;;;11.17;;
10041;SDS011;5061;49.068;12.058;2023-03-01T04:42:08;24.70;;;11.10;;
10041;SDS011;5061;49.068;12.058;2023-03-01T04:45:29;24.40;;;11.27;;
10041;SDS011;5061;49.068;12.058;2023-03-01T04:48:51;21.70;;;11.87;;
10041;SDS011;5061;49.068;12.058;2023-03-01T04:52:11;23.30;;;12.10;;
10041;SDS011;5061;49.068;12.058;2023-03-01T04:55:33;22.90;;;12.13;;
10041;SDS011;5061;49.068;12.058;2023-03-01T04:58:53;26.70;;;12.97;;
10041;SDS011;5061;49.068;12.058;2023-03-01T05:02:14;22.90;;;11.60;;
10041;SDS011;5061;49.068;12.058;2023-03-01T05:05:37;25.27;;;11.90;;
10041;SDS011;5061;49.068;12.058;2023-03-01T05:08:58;22.40;;;11.27;;
10041;SDS011;5061;49.068;12.058;2023-03-01T05:12:19;21.77;;;11.43;;
10041;SDS011;5061;49.068;12.058;2023-03-01T05:15:39;24.73;;;12.17;;
10041;SDS011;5061;49.068;12.058;2023-03-01T05:19:00;24.57;;;12.30;;
10041;SDS011;5061;49.068;12.058;2023-03-01T05:22:21;22.40;;;11.30;;
10041;SDS011;5061;49.068;12.058;2023-03-01T05:25:42;21.47;;;12.10;;
10041;SDS011;5061;49.068;12.058;2023-03-01T05:29:03;22.50;;;11.20;;
10041;SDS011;5061;49.068;12.058;2023-03-01T05:32:24;20.83;;;11.73;;
10041;SDS011;5061;49.068;12.058;2023-03-01T05:35:45;21.73;;;11.30;;
10041;SDS011;5061;49.068;12.058;2023-03-01T05:39:05;25.03;;;12.87;;
10041;SDS011;5061;49.068;12.058;2023-03-01T05:42:26;22.47;;;11.80;;
10041;SDS011;5061;49.068;12.058;2023-03-01T05:45:46;21.67;;;11.37;;
10041;SDS011;5061;49.068;12.058;2023-03-01T05:49:07;28.93;;;11.70;;
10041;SDS011;5061;49.068;12.058;2023-03-01T05:52:28;23.20;;;12.17;;
10041;SDS011;5061;49.068;12.058;2023-03-01T05:55:48;24.80;;;12.40;;
10041;SDS011;5061;49.068;12.058;2023-03-01T05:59:10;27.10;;;12.73;;
10041;SDS011;5061;49.068;12.058;2023-03-01T06:02:31;18.30;;;11.03;;
10041;SDS011;5061;49.068;12.058;2023-03-01T06:05:55;20.43;;;11.17;;
10041;SDS011;5061;49.068;12.058;2023-03-01T06:09:16;20.70;;;10.60;;
10041;SDS011;5061;49.068;12.058;2023-03-01T06:12:37;26.10;;;11.93;;
10041;SDS011;5061;49.068;12.058;2023-03-01T06:15:59;23.37;;;11.93;;
10041;SDS011;5061;49.068;12.058;2023-03-01T06:19:20;26.53;;;12.77;;
10041;SDS011;5061;49.068;12.058;2023-03-01T06:22:41;26.90;;;12.80;;
10041;SDS011;5061;49.068;12.058;2023-03-01T06:26:06;27.77;;;14.10;;
10041;SDS011;5061;49.068;12.058;2023-03-01T06:29:27;26.23;;;13.60;;
10041;SDS011;5061;49.068;12.058;2023-03-01T06:32:48;28.00;;;14.07;;
10041;SDS011;5061;49.068;12.058;2023-03-01T06:36:09;29.23;;;13.80;;
10041;SDS011;5061;49.068;12.058;2023-03-01T06:39:31;28.27;;;13.23;;
10041;SDS011;5061;49.068;12.058;2023-03-01T06:42:52;27.30;;;12.80;;
10041;SDS011;5061;49.068;12.058;2023-03-01T06:46:12;27.97;;;12.10;;
10041;SDS011;5061;49.068;12.058;2023-03-01T06:49:33;27.00;;;12.63;;
10041;SDS011;5061;49.068;12.058;2023-03-01T06:52:57;25.00;;;12.87;;
10041;SDS011;5061;49.068;12.058;2023-03-01T06:56:18;25.00;;;11.97;;
10041;SDS011;5061;49.068;12.058;2023-03-01T06:59:38;25.80;;;12.03;;
10041;SDS011;5061;49.068;12.058;2023-03-01T07:02:59;32.40;;;14.27;;
10041;SDS011;5061;49.068;12.058;2023-03-01T07:06:21;32.50;;;13.73;;
10041;SDS011;5061;49.068;12.058;2023-03-01T07:09:46;27.43;;;12.53;;
10041;SDS011;5061;49.068;12.058;2023-03-01T07:13:08;25.90;;;13.17;;
10041;SDS011;5061;49.068;12.058;2023-03-01T07:16:29;27.97;;;14.30;;
10041;SDS011;5061;49.068;12.058;2023-03-01T07:19:50;24.60;;;12.07;;
10041;SDS011;5061;49.068;12.058;2023-03-01T07:23:10;25.93;;;12.20;;
10041;SDS011;5061;49.068;12.058;2023-03-01T07:26:31;24.23;;;12.37;;
10041;SDS011;5061;49.068;12.058;2023-03-01T07:29:51;27.87;;;14.23;;
10041;SDS011;5061;49.068;12.058;2023-03-01T07:33:12;28.03;;;14.07;;
10041;SDS011;5061;49.068;12.058;2023-03-01T07:36:32;27.37;;;13.97;;
10041;SDS011;5061;49.068;12.058;2023-03-01T07:39:53;26.43;;;13.50;;
10041;SDS011;5061;49.068;12.058;2023-03-01T07:43:14;24.63;;;11.90;;
10041;SDS011;5061;49.068;12.058;2023-03-01T07:46:34;24.63;;;12.43;;
10041;SDS011;5061;49.068;12.058;2023-03-01T07:49:55;24.50;;;11.50;;
10041;SDS011;5061;49.068;12.058;2023-03-01T07:53:15;22.30;;;11.27;;
10041;SDS011;5061;49.068;12.058;2023-03-01T07:56:36;24.83;;;12.30;;
10041;SDS011;5061;49.068;12.058;2023-03-01T07:59:56;23.47;;;12.83;;
10041;SDS011;5061;49.068;12.058;2023-03-01T08:03:17;27.93;;;12.93;;
10041;SDS011;5061;49.068;12.058;2023-03-01T08:06:38;23.47;;;11.87;;
10041;SDS011;5061;49.068;12.058;2023-03-01T08:09:58;23.33;;;11.50;;
10041;SDS011;5061;49.068;12.058;2023-03-01T08:13:19;23.43;;;13.03;;
10041;SDS011;5061;49.068;12.058;2023-03-01T08:16:42;23.40;;;12.03;;
10041;SDS011;5061;49.068;12.058;2023-03-01T08:20:03;18.07;;;9.13;;
10041;SDS011;5061;49.068;12.058;2023-03-01T08:23:27;17.67;;;9.80;;
10041;SDS011;5061;49.068;12.058;2023-03-01T08:26:47;24.73;;;10.97;;
10041;SDS011;5061;49.068;12.058;2023-03-01T08:30:08;20.43;;;10.40;;
10041;SDS011;5061;49.068;12.058;2023-03-01T08:33:29;13.90;;;8.90;;
10041;SDS011;5061;49.068;12.058;2023-03-01T08:36:50;17.00;;;9.33;;
10041;SDS011;5061;49.068;12.058;2023-03-01T08:40:12;16.70;;;8.63;;
10041;SDS011;5061;49.068;12.058;2023-03-01T08:43:33;20.50;;;9.87;;
10041;SDS011;5061;49.068;12.058;2023-03-01T08:46:54;11.70;;;7.07;;
10041;SDS011;5061;49.068;12.058;2023-03-01T08:50:15;14.70;;;7.60;;
10041;SDS011;5061;49.068;12.058;2023-03-01T08:53:36;16.77;;;9.03;;
10041;SDS011;5061;49.068;12.058;2023-03-01T08:56:56;15.40;;;8.80;;
10041;SDS011;5061;49.068;12.058;2023-03-01T09:00:19;16.20;;;7.70;;
10041;SDS011;5061;49.068;12.058;2023-03-01T09:03:40;14.30;;;7.87;;
10041;SDS011;5061;49.068;12.058;2023-03-01T09:07:01;15.60;;;7.70;;
10041;SDS011;5061;49.068;12.058;2023-03-01T09:10:21;14.23;;;7.30;;
10041;SDS011;5061;49.068;12.058;2023-03-01T09:13:42;16.60;;;9.10;;
10041;SDS011;5061;49.068;12.058;2023-03-01T09:17:05;23.23;;;11.90;;
10041;SDS011;5061;49.068;12.058;2023-03-01T09:20:25;19.80;;;10.10;;
10041;SDS011;5061;49.068;12.058;2023-03-01T09:23:47;19.10;;;10.97;;
10041;SDS011;5061;49.068;12.058;2023-03-01T09:27:08;18.83;;;9.87;;
10041;SDS011;5061;49.068;12.058;2023-03-01T09:30:29;17.70;;;8.50;;
10041;SDS011;5061;49.068;12.058;2023-03-01T09:33:50;16.37;;;8.60;;
10041;SDS011;5061;49.068;12.058;2023-03-01T09:37:12;18.13;;;9.67;;
10041;SDS011;5061;49.068;12.058;2023-03-01T09:40:34;20.67;;;10.10;;
10041;SDS011;5061;49.068;12.058;2023-03-01T09:44:18;18.87;;;10.40;;
10041;SDS011;5061;49.068;12.058;2023-03-01T09:47:48;18.90;;;10.00;;
10041;SDS011;5061;49.068;12.058;2023-03-01T09:51:12;23.00;;;11.00;;
10041;SDS011;5061;49.068;12.058;2023-03-01T09:54:55;21.70;;;10.57;;
10041;SDS011;5061;49.068;12.058;2023-03-01T10:01:59;21.17;;;10.63;;
10041;SDS011;5061;49.068;12.058;2023-03-01T10:05:55;17.17;;;10.37;;
10041;SDS011;5061;49.068;12.058;2023-03-01T10:09:40;17.33;;;10.13;;
10041;SDS011;5061;49.068;12.058;2023-03-01T10:13:14;20.73;;;10.83;;
10041;SDS011;5061;49.068;12.058;2023-03-01T10:20:26;20.00;;;10.50;;
10041;SDS011;5061;49.068;12.058;2023-03-01T10:24:05;18.53;;;9.90;;
10041;SDS011;5061;49.068;12.058;2023-03-01T10:31:01;14.63;;;8.87;;
10041;SDS011;5061;49.068;12.058;2023-03-01T10:34:30;17.40;;;9.50;;
10041;SDS011;5061;49.068;12.058;2023-03-01T10:38:05;22.23;;;11.43;;
10041;SDS011;5061;49.068;12.058;2023-03-01T10:41:33;20.00;;;9.90;;
10041;SDS011;5061;49.068;12.058;2023-03-01T10:52:34;17.17;;;9.77;;
10041;SDS011;5061;49.068;12.058;2023-03-01T10:56:04;17.33;;;10.13;;
10041;SDS011;5061;49.068;12.058;2023-03-01T11:03:01;17.67;;;9.30;;
10041;SDS011;5061;49.068;12.058;2023-03-01T11:06:23;16.73;;;9.20;;
10041;SDS011;5061;49.068;12.058;2023-03-01T11:09:44;19.47;;;10.37;;
10041;SDS011;5061;49.068;12.058;2023-03-01T11:13:23;16.60;;;9.80;;
10041;SDS011;5061;49.068;12.058;2023-03-01T11:16:44;21.90;;;10.83;;
10041;SDS011;5061;49.068;12.058;2023-03-01T11:23:34;22.27;;;10.77;;
10041;SDS011;5061;49.068;12.058;2023-03-01T11:26:57;20.67;;;10.33;;
10041;SDS011;5061;49.068;12.058;2023-03-01T11:30:24;16.60;;;9.33;;
10041;SDS011;5061;49.068;12.058;2023-03-01T11:34:12;15.37;;;9.20;;
10041;SDS011;5061;49.068;12.058;2023-03-01T11:41:16;18.20;;;9.80;;
10041;SDS011;5061;49.068;12.058;2023-03-01T11:44:39;14.93;;;9.80;;
10041;SDS011;5061;49.068;12.058;2023-03-01T12:09:53;16.90;;;8.63;;
10041;SDS011;5061;49.068;12.058;2023-03-01T12:20:14;21.53;;;11.13;;
10041;SDS011;5061;49.068;12.058;2023-03-01T12:38:42;20.73;;;11.03;;
10041;SDS011;5061;49.068;12.058;2023-03-01T12:42:29;17.63;;;10.47;;
10041;SDS011;5061;49.068;12.058;2023-03-01T12:46:04;13.53;;;8.47;;
10041;SDS011;5061;49.068;12.058;2023-03-01T12:49:30;21.07;;;10.40;;
10041;SDS011;5061;49.068;12.058;2023-03-01T12:52:57;15.10;;;9.30;;
10041;SDS011;5061;49.068;12.058;2023-03-01T12:56:22;16.53;;;10.83;;
10041;SDS011;5061;49.068;12.058;2023-03-01T13:10:43;17.37;;;10.73;;
10041;SDS011;5061;49.068;12.058;2023-03-01T13:17:45;19.30;;;12.10;;
10041;SDS011;5061;49.068;12.058;2023-03-01T13:21:06;20.60;;;12.17;;
10041;SDS011;5061;49.068;12.058;2023-03-01T13:24:27;19.47;;;12.20;;
10041;SDS011;5061;49.068;12.058;2023-03-01T13:27:53;15.40;;;10.60;;
10041;SDS011;5061;49.068;12.058;2023-03-01T13:38:48;21.00;;;10.87;;
10041;SDS011;5061;49.068;12.058;2023-03-01T13:42:33;16.17;;;10.57;;
10041;SDS011;5061;49.068;12.058;2023-03-01T13:45:57;19.47;;;11.83;;
10041;SDS011;5061;49.068;12.058;2023-03-01T13:49:20;21.73;;;13.00;;
10041;SDS011;5061;49.068;12.058;2023-03-01T13:52:44;26.97;;;14.13;;
10041;SDS011;5061;49.068;12.058;2023-03-01T13:59:34;19.40;;;11.77;;
10041;SDS011;5061;49.068;12.058;2023-03-01T14:06:35;23.53;;;12.53;;
10041;SDS011;5061;49.068;12.058;2023-03-01T14:09:57;21.60;;;13.00;;
10041;SDS011;5061;49.068;12.058;2023-03-01T14:21:08;22.33;;;12.00;;
10041;SDS011;5061;49.068;12.058;2023-03-01T14:24:29;17.80;;;10.80;;
10041;SDS011;5061;49.068;12.058;2023-03-01T14:28:00;16.23;;;9.60;;
10041;SDS011;5061;49.068;12.058;2023-03-01T14:31:45;25.20;;;13.70;;
10041;SDS011;5061;49.068;12.058;2023-03-01T14:35:23;20.30;;;11.90;;
10041;SDS011;5061;49.068;12.058;2023-03-01T14:38:47;17.20;;;11.50;;
10041;SDS011;5061;49.068;12.058;2023-03-01T14:42:07;21.23;;;11.70;;
10041;SDS011;5061;49.068;12.058;2023-03-01T14:45:29;18.90;;;10.97;;
10041;SDS011;5061;49.068;12.058;2023-03-01T14:48:54;17.60;;;11.60;;
10041;SDS011;5061;49.068;12.058;2023-03-01T14:52:23;19.23;;;12.30;;
10041;SDS011;5061;49.068;12.058;2023-03-01T14:55:51;16.37;;;10.17;;
10041;SDS011;5061;49.068;12.058;2023-03-01T14:59:14;16.50;;;10.20;;
10041;SDS011;5061;49.068;12.058;2023-03-01T15:02:35;15.93;;;10.73;;
10041;SDS011;5061;49.068;12.058;2023-03-01T15:05:56;14.30;;;9.40;;
10041;SDS011;5061;49.068;12.058;2023-03-01T15:09:18;12.30;;;8.33;;
10041;SDS011;5061;49.068;12.058;2023-03-01T15:12:40;15.80;;;9.53;;
10041;SDS011;5061;49.068;12.058;2023-03-01T15:16:06;16.13;;;10.97;;
10041;SDS011;5061;49.068;12.058;2023-03-01T15:19:30;17.83;;;10.67;;
10041;SDS011;5061;49.068;12.058;2023-03-01T15:22:52;18.40;;;10.33;;
10041;SDS011;5061;49.068;12.058;2023-03-01T15:26:20;18.03;;;10.50;;
10041;SDS011;5061;49.068;12.058;2023-03-01T15:29:49;18.30;;;10.80;;
10041;SDS011;5061;49.068;12.058;2023-03-01T15:36:52;17.63;;;10.37;;
10041;SDS011;5061;49.068;12.058;2023-03-01T15:40:32;22.20;;;12.10;;
10041;SDS011;5061;49.068;12.058;2023-03-01T15:43:53;18.83;;;11.97;;
10041;SDS011;5061;49.068;12.058;2023-03-01T15:47:22;21.53;;;12.93;;
10041;SDS011;5061;49.068;12.058;2023-03-01T15:50:53;18.97;;;10.70;;
10041;SDS011;5061;49.068;12.058;2023-03-01T15:54:20;17.93;;;11.63;;
10041;SDS011;5061;49.068;12.058;2023-03-01T15:57:43;15.23;;;9.67;;
10041;SDS011;5061;49.068;12.058;2023-03-01T16:01:07;20.33;;;11.70;;
10041;SDS011;5061;49.068;12.058;2023-03-01T16:04:33;20.60;;;11.07;;
10041;SDS011;5061;49.068;12.058;2023-03-01T16:07:54;17.53;;;10.57;;
10041;SDS011;5061;49.068;12.058;2023-03-01T16:11:16;18.70;;;11.73;;
10041;SDS011;5061;49.068;12.058;2023-03-01T16:14:38;22.20;;;11.00;;
10041;SDS011;5061;49.068;12.058;2023-03-01T16:18:05;19.47;;;10.33;;
10041;SDS011;5061;49.068;12.058;2023-03-01T16:21:27;20.40;;;12.57;;
10041;SDS011;5061;49.068;12.058;2023-03-01T16:24:48;26.07;;;12.60;;
10041;SDS011;5061;49.068;12.058;2023-03-01T16:28:08;18.90;;;10.80;;
10041;SDS011;5061;49.068;12.058;2023-03-01T16:31:30;17.40;;;10.07;;
10041;SDS011;5061;49.068;12.058;2023-03-01T16:34:50;14.60;;;9.17;;
10041;SDS011;5061;49.068;12.058;2023-03-01T16:38:11;27.60;;;11.27;;
10041;SDS011;5061;49.068;12.058;2023-03-01T16:41:32;16.43;;;9.77;;
10041;SDS011;5061;49.068;12.058;2023-03-01T16:44:55;15.53;;;10.03;;
10041;SDS011;5061;49.068;12.058;2023-03-01T16:48:16;18.20;;;10.67;;
10041;SDS011;5061;49.068;12.058;2023-03-01T16:51:37;15.00;;;9.50;;
10041;SDS011;5061;49.068;12.058;2023-03-01T16:54:57;16.50;;;9.70;;
10041;SDS011;5061;49.068;12.058;2023-03-01T16:58:18;17.43;;;10.30;;
10041;SDS011;5061;49.068;12.058;2023-03-01T17:01:39;15.20;;;9.93;;
10041;SDS011;5061;49.068;12.058;2023-03-01T17:05:01;23.93;;;12.10;;
10041;SDS011;5061;49.068;12.058;2023-03-01T17:08:22;21.17;;;11.40;;
10041;SDS011;5061;49.068;12.058;2023-03-01T17:11:43;19.30;;;10.87;;
10041;SDS011;5061;49.068;12.058;2023-03-01T17:15:04;19.20;;;11.60;;
10041;SDS011;5061;49.068;12.058;2023-03-01T17:18:26;20.67;;;11.80;;
10041;SDS011;5061;49.068;12.058;2023-03-01T17:21:47;19.60;;;12.53;;
10041;SDS011;5061;49.068;12.058;2023-03-01T17:25:08;18.00;;;10.53;;
10041;SDS011;5061;49.068;12.058;2023-03-01T17:28:30;21.80;;;13.33;;
10041;SDS011;5061;49.068;12.058;2023-03-01T17:31:51;19.13;;;12.10;;
10041;SDS011;5061;49.068;12.058;2023-03-01T17:35:14;19.83;;;11.80;;
10041;SDS011;5061;49.068;12.058;2023-03-01T17:38:35;20.00;;;11.70;;
10041;SDS011;5061;49.068;12.058;2023-03-01T17:41:56;21.30;;;12.50;;
10041;SDS011;5061;49.068;12.058;2023-03-01T17:45:17;20.33;;;12.67;;
10041;SDS011;5061;49.068;12.058;2023-03-01T17:48:37;22.27;;;12.30;;
10041;SDS011;5061;49.068;12.058;2023-03-01T17:51:58;19.60;;;11.70;;
10041;SDS011;5061;49.068;12.058;2023-03-01T17:55:19;20.63;;;12.57;;
10041;SDS011;5061;49.068;12.058;2023-03-01T17:58:41;19.80;;;11.60;;
10041;SDS011;5061;49.068;12.058;2023-03-01T18:02:01;20.43;;;11.90;;
10041;SDS011;5061;49.068;12.058;2023-03-01T18:05:22;20.30;;;11.33;;
10041;SDS011;5061;49.068;12.058;2023-03-01T18:08:44;17.60;;;9.70;;
10041;SDS011;5061;49.068;12.058;2023-03-01T18:12:05;21.63;;;10.10;;
10041;SDS011;5061;49.068;12.058;2023-03-01T18:15:26;15.30;;;9.90;;
10041;SDS011;5061;49.068;12.058;2023-03-01T18:18:47;15.20;;;9.07;;
10041;SDS011;5061;49.068;12.058;2023-03-01T18:22:11;17.83;;;9.80;;
10041;SDS011;5061;49.068;12.058;2023-03-01T18:25:32;18.77;;;9.70;;
10041;SDS011;5061;49.068;12.058;2023-03-01T18:28:54;13.87;;;8.40;;
10041;SDS011;5061;49.068;12.058;2023-03-01T18:32:17;15.97;;;9.50;;
10041;SDS011;5061;49.068;12.058;2023-03-01T18:35:37;14.93;;;9.00;;
10041;SDS011;5061;49.068;12.058;2023-03-01T18:38:58;12.67;;;8.53;;
10041;SDS011;5061;49.068;12.058;2023-03-01T18:42:21;15.57;;;8.93;;
10041;SDS011;5061;49.068;12.058;2023-03-01T18:45:41;16.30;;;9.10;;
10041;SDS011;5061;49.068;12.058;2023-03-01T18:49:04;16.70;;;9.73;;
10041;SDS011;5061;49.068;12.058;2023-03-01T18:52:28;15.80;;;9.53;;
10041;SDS011;5061;49.068;12.058;2023-03-01T18:55:48;13.60;;;8.13;;
10041;SDS011;5061;49.068;12.058;2023-03-01T18:59:09;16.90;;;10.10;;
10041;SDS011;5061;49.068;12.058;2023-03-01T19:02:30;17.70;;;9.13;;
10041;SDS011;5061;49.068;12.058;2023-03-01T19:05:51;17.50;;;9.53;;
10041;SDS011;5061;49.068;12.058;2023-03-01T19:09:11;17.67;;;10.00;;
10041;SDS011;5061;49.068;12.058;2023-03-01T19:12:33;20.20;;;10.47;;
10041;SDS011;5061;49.068;12.058;2023-03-01T19:16:01;19.77;;;9.83;;
10041;SDS011;5061;49.068;12.058;2023-03-01T19:19:23;15.90;;;9.40;;
10041;SDS011;5061;49.068;12.058;2023-03-01T19:22:44;18.07;;;10.30;;
10041;SDS011;5061;49.068;12.058;2023-03-01T19:26:06;17.07;;;9.23;;
10041;SDS011;5061;49.068;12.058;2023-03-01T19:29:29;15.87;;;9.43;;
10041;SDS011;5061;49.068;12.058;2023-03-01T19:32:50;15.63;;;9.10;;
10041;SDS011;5061;49.068;12.058;2023-03-01T19:36:12;14.90;;;8.97;;
10041;SDS011;5061;49.068;12.058;2023-03-01T19:39:33;17.57;;;9.20;;
10041;SDS011;5061;49.068;12.058;2023-03-01T19:42:53;17.40;;;9.97;;
10041;SDS011;5061;49.068;12.058;2023-03-01T19:46:14;14.40;;;8.83;;
10041;SDS011;5061;49.068;12.058;2023-03-01T19:49:35;17.57;;;10.70;;
10041;SDS011;5061;49.068;12.058;2023-03-01T19:52:56;20.73;;;10.10;;
10041;SDS011;5061;49.068;12.058;2023-03-01T19:56:17;17.33;;;9.80;;
10041;SDS011;5061;49.068;12.058;2023-03-01T19:59:37;16.97;;;8.97;;
10041;SDS011;5061;49.068;12.058;2023-03-01T20:02:58;16.60;;;9.00;;
10041;SDS011;5061;49.068;12.058;2023-03-01T20:06:19;18.60;;;9.97;;
10041;SDS011;5061;49.068;12.058;2023-03-01T20:09:40;17.70;;;9.57;;
10041;SDS011;5061;49.068;12.058;2023-03-01T20:13:01;17.10;;;10.10;;
10041;SDS011;5061;49.068;12.058;2023-03-01T20:16:22;15.87;;;9.27;;
10041;SDS011;5061;49.068;12.058;2023-03-01T20:19:43;16.53;;;9.40;;
10041;SDS011;5061;49.068;12.058;2023-03-01T20:23:04;23.97;;;9.20;;
10041;SDS011;5061;49.068;12.058;2023-03-01T20:26:24;17.80;;;9.27;;
10041;SDS011;5061;49.068;12.058;2023-03-01T20:29:46;15.27;;;9.40;;
10041;SDS011;5061;49.068;12.058;2023-03-01T20:33:06;17.13;;;9.37;;
10041;SDS011;5061;49.068;12.058;2023-03-01T20:36:27;12.13;;;8.50;;
10041;SDS011;5061;49.068;12.058;2023-03-01T20:39:48;17.60;;;9.70;;
10041;SDS011;5061;49.068;12.058;2023-03-01T20:43:08;17.03;;;9.07;;
10041;SDS011;5061;49.068;12.058;2023-03-01T20:46:29;19.33;;;9.43;;
10041;SDS011;5061;49.068;12.058;2023-03-01T20:49:51;17.97;;;9.17;;
10041;SDS011;5061;49.068;12.058;2023-03-01T20:53:11;16.03;;;8.90;;
10041;SDS011;5061;49.068;12.058;2023-03-01T20:56:32;16.00;;;8.53;;
10041;SDS011;5061;49.068;12.058;2023-03-01T20:59:53;16.57;;;8.87;;
10041;SDS011;5061;49.068;12.058;2023-03-01T21:03:13;16.10;;;8.63;;
10041;SDS011;5061;49.068;12.058;2023-03-01T21:06:34;16.80;;;9.10;;
10041;SDS011;5061;49.068;12.058;2023-03-01T21:09:55;16.50;;;9.40;;
10041;SDS011;5061;49.068;12.058;2023-03-01T21:13:16;15.17;;;7.67;;
10041;SDS011;5061;49.068;12.058;2023-03-01T21:16:37;12.60;;;7.60;;
10041;SDS011;5061;49.068;12.058;2023-03-01T21:20:00;16.60;;;8.80;;
10041;SDS011;5061;49.068;12.058;2023-03-01T21:23:25;15.83;;;8.50;;
10041;SDS011;5061;49.068;12.058;2023-03-01T21:26:48;13.10;;;7.67;;
10041;SDS011;5061;49.068;12.058;2023-03-01T21:30:09;14.63;;;8.00;;
10041;SDS011;5061;49.068;12.058;2023-03-01T21:33:31;19.30;;;8.90;;
10041;SDS011;5061;49.068;12.058;2023-03-01T21:36:52;16.37;;;8.73;;
10041;SDS011;5061;49.068;12.058;2023-03-01T21:40:16;12.50;;;6.93;;
10041;SDS011;5061;49.068;12.058;2023-03-01T21:43:37;14.07;;;7.63;;
10041;SDS011;5061;49.068;12.058;2023-03-01T21:47:01;13.60;;;7.93;;
10041;SDS011;5061;49.068;12.058;2023-03-01T21:50:22;16.47;;;9.00;;
10041;SDS011;5061;49.068;12.058;2023-03-01T21:53:43;13.47;;;8.10;;
10041;SDS011;5061;49.068;12.058;2023-03-01T21:57:04;16.40;;;8.80;;